sensor_id;sensor_type;location;lat;lon;timestamp;P1;durP1;ratioP1;P2;durP2;ratioP2
10667;SDS011;5382;42.136;24.796;2024-01-11T00:01:09;34.88;;;15.93;;
10667;SDS011;5382;42.136;24.796;2024-01-11T00:03:36;39.03;;;28.15;;
10667;SDS011;5382;42.136;24.796;2024-01-11T00:06:05;38.42;;;27.17;;
10667;SDS011;5382;42.136;24.796;2024-01-11T00:08:32;36.28;;;26.05;;
10667;SDS011;5382;42.136;24.796;2024-01-11T00:10:59;35.03;;;17.67;;
10667;SDS011;5382;42.136;24.796;2024-01-11T00:13:26;26.58;;;15.55;;
10667;SDS011;5382;42.136;24.796;2024-01-11T00:15:53;28.05;;;14.80;;
10667;SDS011;5382;42.136;24.796;2024-01-11T00:18:20;35.30;;;25.95;;
10667;SDS011;5382;42.136;24.796;2024-01-11T00:20:47;42.25;;;26.40;;
10667;SDS011;5382;42.136;24.796;2024-01-11T00:23:16;35.97;;;26.40;;
10667;SDS011;5382;42.136;24.796;2024-01-11T00:25:42;31.60;;;16.85;;
10667;SDS011;5382;42.136;24.796;2024-01-11T00:28:10;33.13;;;25.00;;
10667;SDS011;5382;42.136;24.796;2024-01-11T00:30:37;33.83;;;25.05;;
10667;SDS011;5382;42.136;24.796;2024-01-11T00:33:03;26.85;;;12.90;;
10667;SDS011;5382;42.136;24.796;2024-01-11T00:35:31;23.85;;;14.48;;
10667;SDS011;5382;42.136;24.796;2024-01-11T00:37:58;21.48;;;11.35;;
10667;SDS011;5382;42.136;24.796;2024-01-11T00:40:27;21.55;;;12.75;;
10667;SDS011;5382;42.136;24.796;2024-01-11T00:42:54;24.98;;;13.75;;
10667;SDS011;5382;42.136;24.796;2024-01-11T00:45:21;20.77;;;12.73;;
10667;SDS011;5382;42.136;24.796;2024-01-11T00:47:48;25.42;;;13.27;;
10667;SDS011;5382;42.136;24.796;2024-01-11T00:50:15;21.80;;;14.13;;
10667;SDS011;5382;42.136;24.796;2024-01-11T00:52:42;32.60;;;21.80;;
10667;SDS011;5382;42.136;24.796;2024-01-11T00:55:09;26.00;;;13.77;;
10667;SDS011;5382;42.136;24.796;2024-01-11T00:57:37;19.85;;;13.02;;
10667;SDS011;5382;42.136;24.796;2024-01-11T01:00:05;30.17;;;21.25;;
10667;SDS011;5382;42.136;24.796;2024-01-11T01:02:33;26.42;;;13.90;;
10667;SDS011;5382;42.136;24.796;2024-01-11T01:05:00;25.17;;;14.90;;
10667;SDS011;5382;42.136;24.796;2024-01-11T01:07:26;38.83;;;25.73;;
10667;SDS011;5382;42.136;24.796;2024-01-11T01:09:53;24.98;;;14.73;;
10667;SDS011;5382;42.136;24.796;2024-01-11T01:12:21;35.13;;;25.55;;
10667;SDS011;5382;42.136;24.796;2024-01-11T01:14:51;34.78;;;25.70;;
10667;SDS011;5382;42.136;24.796;2024-01-11T01:17:18;33.45;;;25.88;;
10667;SDS011;5382;42.136;24.796;2024-01-11T01:19:45;38.83;;;26.52;;
10667;SDS011;5382;42.136;24.796;2024-01-11T01:22:12;30.20;;;17.45;;
10667;SDS011;5382;42.136;24.796;2024-01-11T01:24:40;38.10;;;27.20;;
10667;SDS011;5382;42.136;24.796;2024-01-11T01:27:07;39.03;;;27.00;;
10667;SDS011;5382;42.136;24.796;2024-01-11T01:29:34;27.05;;;16.13;;
10667;SDS011;5382;42.136;24.796;2024-01-11T01:32:02;28.85;;;16.98;;
10667;SDS011;5382;42.136;24.796;2024-01-11T01:34:30;36.75;;;27.13;;
10667;SDS011;5382;42.136;24.796;2024-01-11T01:36:57;41.20;;;28.42;;
10667;SDS011;5382;42.136;24.796;2024-01-11T01:39:24;26.30;;;16.60;;
10667;SDS011;5382;42.136;24.796;2024-01-11T01:41:51;28.52;;;17.38;;
10667;SDS011;5382;42.136;24.796;2024-01-11T01:44:18;38.97;;;27.50;;
10667;SDS011;5382;42.136;24.796;2024-01-11T01:46:44;38.90;;;28.17;;
10667;SDS011;5382;42.136;24.796;2024-01-11T01:49:13;31.05;;;17.58;;
10667;SDS011;5382;42.136;24.796;2024-01-11T01:51:43;36.67;;;26.95;;
10667;SDS011;5382;42.136;24.796;2024-01-11T01:54:10;36.67;;;27.05;;
10667;SDS011;5382;42.136;24.796;2024-01-11T01:56:37;29.80;;;17.50;;
10667;SDS011;5382;42.136;24.796;2024-01-11T01:59:04;27.33;;;16.55;;
10667;SDS011;5382;42.136;24.796;2024-01-11T02:01:32;27.75;;;16.33;;
10667;SDS011;5382;42.136;24.796;2024-01-11T02:03:59;37.83;;;26.63;;
10667;SDS011;5382;42.136;24.796;2024-01-11T02:06:28;32.83;;;17.98;;
10667;SDS011;5382;42.136;24.796;2024-01-11T02:08:59;38.53;;;26.13;;
10667;SDS011;5382;42.136;24.796;2024-01-11T02:11:28;32.45;;;16.75;;
10667;SDS011;5382;42.136;24.796;2024-01-11T02:13:56;38.15;;;26.75;;
10667;SDS011;5382;42.136;24.796;2024-01-11T02:16:24;28.67;;;16.73;;
10667;SDS011;5382;42.136;24.796;2024-01-11T02:18:50;40.33;;;28.73;;
10667;SDS011;5382;42.136;24.796;2024-01-11T02:21:18;43.00;;;29.70;;
10667;SDS011;5382;42.136;24.796;2024-01-11T02:23:52;39.80;;;28.80;;
10667;SDS011;5382;42.136;24.796;2024-01-11T02:26:23;33.55;;;17.80;;
10667;SDS011;5382;42.136;24.796;2024-01-11T02:28:50;29.88;;;16.52;;
10667;SDS011;5382;42.136;24.796;2024-01-11T02:31:17;28.80;;;16.35;;
10667;SDS011;5382;42.136;24.796;2024-01-11T02:33:44;30.83;;;16.58;;
10667;SDS011;5382;42.136;24.796;2024-01-11T02:36:11;26.40;;;17.02;;
10667;SDS011;5382;42.136;24.796;2024-01-11T02:38:38;33.95;;;16.58;;
10667;SDS011;5382;42.136;24.796;2024-01-11T02:41:09;25.23;;;16.20;;
10667;SDS011;5382;42.136;24.796;2024-01-11T02:43:37;37.28;;;24.75;;
10667;SDS011;5382;42.136;24.796;2024-01-11T02:46:05;35.88;;;24.75;;
10667;SDS011;5382;42.136;24.796;2024-01-11T02:48:32;26.30;;;16.20;;
10667;SDS011;5382;42.136;24.796;2024-01-11T02:50:59;29.38;;;15.75;;
10667;SDS011;5382;42.136;24.796;2024-01-11T02:53:26;28.70;;;15.40;;
10667;SDS011;5382;42.136;24.796;2024-01-11T02:55:53;29.33;;;13.70;;
10667;SDS011;5382;42.136;24.796;2024-01-11T02:58:21;21.58;;;14.50;;
10667;SDS011;5382;42.136;24.796;2024-01-11T03:00:48;24.25;;;14.10;;
10667;SDS011;5382;42.136;24.796;2024-01-11T03:03:16;27.73;;;16.15;;
10667;SDS011;5382;42.136;24.796;2024-01-11T03:05:43;19.17;;;12.77;;
10667;SDS011;5382;42.136;24.796;2024-01-11T03:08:10;24.27;;;13.40;;
10667;SDS011;5382;42.136;24.796;2024-01-11T03:10:37;26.50;;;14.40;;
10667;SDS011;5382;42.136;24.796;2024-01-11T03:13:05;21.17;;;12.57;;
10667;SDS011;5382;42.136;24.796;2024-01-11T03:15:33;19.08;;;11.95;;
10667;SDS011;5382;42.136;24.796;2024-01-11T03:18:00;21.73;;;12.57;;
10667;SDS011;5382;42.136;24.796;2024-01-11T03:20:27;22.85;;;13.27;;
10667;SDS011;5382;42.136;24.796;2024-01-11T03:22:54;20.88;;;12.32;;
10667;SDS011;5382;42.136;24.796;2024-01-11T03:25:21;29.05;;;18.60;;
10667;SDS011;5382;42.136;24.796;2024-01-11T03:27:48;28.80;;;18.92;;
10667;SDS011;5382;42.136;24.796;2024-01-11T03:30:15;27.00;;;11.05;;
10667;SDS011;5382;42.136;24.796;2024-01-11T03:32:44;17.52;;;11.70;;
10667;SDS011;5382;42.136;24.796;2024-01-11T03:35:11;23.58;;;18.02;;
10667;SDS011;5382;42.136;24.796;2024-01-11T03:37:38;16.27;;;10.95;;
10667;SDS011;5382;42.136;24.796;2024-01-11T03:40:05;24.63;;;17.15;;
10667;SDS011;5382;42.136;24.796;2024-01-11T03:42:33;21.38;;;11.20;;
10667;SDS011;5382;42.136;24.796;2024-01-11T03:45:02;19.73;;;11.77;;
10667;SDS011;5382;42.136;24.796;2024-01-11T03:47:29;16.05;;;10.45;;
10667;SDS011;5382;42.136;24.796;2024-01-11T03:49:58;17.60;;;10.35;;
10667;SDS011;5382;42.136;24.796;2024-01-11T03:52:25;14.65;;;9.10;;
10667;SDS011;5382;42.136;24.796;2024-01-11T03:54:52;22.80;;;15.10;;
10667;SDS011;5382;42.136;24.796;2024-01-11T03:57:19;13.00;;;8.60;;
10667;SDS011;5382;42.136;24.796;2024-01-11T03:59:45;20.05;;;14.45;;
10667;SDS011;5382;42.136;24.796;2024-01-11T04:02:12;18.88;;;14.23;;
10667;SDS011;5382;42.136;24.796;2024-01-11T04:04:40;19.33;;;14.13;;
10667;SDS011;5382;42.136;24.796;2024-01-11T04:07:09;16.10;;;9.15;;
10667;SDS011;5382;42.136;24.796;2024-01-11T04:09:37;15.25;;;9.65;;
10667;SDS011;5382;42.136;24.796;2024-01-11T04:12:04;21.23;;;15.32;;
10667;SDS011;5382;42.136;24.796;2024-01-11T04:14:32;21.92;;;14.77;;
10667;SDS011;5382;42.136;24.796;2024-01-11T04:16:59;16.90;;;10.23;;
10667;SDS011;5382;42.136;24.796;2024-01-11T04:19:26;18.27;;;14.10;;
10667;SDS011;5382;42.136;24.796;2024-01-11T04:21:53;17.52;;;9.15;;
10667;SDS011;5382;42.136;24.796;2024-01-11T04:24:21;15.52;;;8.95;;
10667;SDS011;5382;42.136;24.796;2024-01-11T04:26:48;21.92;;;13.70;;
10667;SDS011;5382;42.136;24.796;2024-01-11T04:29:15;15.50;;;7.88;;
10667;SDS011;5382;42.136;24.796;2024-01-11T04:31:42;12.65;;;7.85;;
10667;SDS011;5382;42.136;24.796;2024-01-11T04:34:09;15.65;;;12.02;;
10667;SDS011;5382;42.136;24.796;2024-01-11T04:36:37;18.40;;;11.95;;
10667;SDS011;5382;42.136;24.796;2024-01-11T04:39:05;13.10;;;8.20;;
10667;SDS011;5382;42.136;24.796;2024-01-11T04:41:34;13.57;;;7.70;;
10667;SDS011;5382;42.136;24.796;2024-01-11T04:44:02;11.52;;;7.03;;
10667;SDS011;5382;42.136;24.796;2024-01-11T04:46:29;10.32;;;6.05;;
10667;SDS011;5382;42.136;24.796;2024-01-11T04:48:56;14.57;;;6.43;;
10667;SDS011;5382;42.136;24.796;2024-01-11T04:51:23;12.25;;;7.20;;
10667;SDS011;5382;42.136;24.796;2024-01-11T04:53:50;14.35;;;10.70;;
10667;SDS011;5382;42.136;24.796;2024-01-11T04:56:17;12.52;;;8.30;;
10667;SDS011;5382;42.136;24.796;2024-01-11T04:58:45;17.00;;;12.45;;
10667;SDS011;5382;42.136;24.796;2024-01-11T05:01:13;16.55;;;12.52;;
10667;SDS011;5382;42.136;24.796;2024-01-11T05:03:41;15.45;;;12.05;;
10667;SDS011;5382;42.136;24.796;2024-01-11T05:06:08;18.80;;;12.48;;
10667;SDS011;5382;42.136;24.796;2024-01-11T05:08:35;14.85;;;9.10;;
10667;SDS011;5382;42.136;24.796;2024-01-11T05:11:02;11.75;;;7.65;;
10667;SDS011;5382;42.136;24.796;2024-01-11T05:13:29;16.08;;;9.05;;
10667;SDS011;5382;42.136;24.796;2024-01-11T05:15:58;18.27;;;12.25;;
10667;SDS011;5382;42.136;24.796;2024-01-11T05:18:25;16.08;;;11.57;;
10667;SDS011;5382;42.136;24.796;2024-01-11T05:20:52;16.85;;;11.05;;
10667;SDS011;5382;42.136;24.796;2024-01-11T05:23:19;13.05;;;8.38;;
10667;SDS011;5382;42.136;24.796;2024-01-11T05:25:45;14.43;;;9.27;;
10667;SDS011;5382;42.136;24.796;2024-01-11T05:28:13;15.05;;;8.80;;
10667;SDS011;5382;42.136;24.796;2024-01-11T05:30:40;17.35;;;9.82;;
10667;SDS011;5382;42.136;24.796;2024-01-11T05:33:08;17.27;;;10.00;;
10667;SDS011;5382;42.136;24.796;2024-01-11T05:35:35;16.70;;;9.70;;
10667;SDS011;5382;42.136;24.796;2024-01-11T05:38:02;20.70;;;14.85;;
10667;SDS011;5382;42.136;24.796;2024-01-11T05:40:29;19.55;;;14.48;;
10667;SDS011;5382;42.136;24.796;2024-01-11T05:42:56;12.95;;;9.32;;
10667;SDS011;5382;42.136;24.796;2024-01-11T05:45:23;22.77;;;13.57;;
10667;SDS011;5382;42.136;24.796;2024-01-11T05:47:50;32.10;;;20.98;;
10667;SDS011;5382;42.136;24.796;2024-01-11T05:50:18;14.07;;;9.15;;
10667;SDS011;5382;42.136;24.796;2024-01-11T05:52:45;14.48;;;9.43;;
10667;SDS011;5382;42.136;24.796;2024-01-11T05:55:12;14.82;;;9.05;;
10667;SDS011;5382;42.136;24.796;2024-01-11T05:57:40;16.10;;;9.43;;
10667;SDS011;5382;42.136;24.796;2024-01-11T06:00:07;26.83;;;17.58;;
10667;SDS011;5382;42.136;24.796;2024-01-11T06:02:35;17.17;;;11.20;;
10667;SDS011;5382;42.136;24.796;2024-01-11T06:05:03;20.27;;;13.98;;
10667;SDS011;5382;42.136;24.796;2024-01-11T06:07:31;16.92;;;8.57;;
10667;SDS011;5382;42.136;24.796;2024-01-11T06:09:58;21.67;;;14.30;;
10667;SDS011;5382;42.136;24.796;2024-01-11T06:12:26;18.70;;;9.13;;
10667;SDS011;5382;42.136;24.796;2024-01-11T06:14:53;17.65;;;9.48;;
10667;SDS011;5382;42.136;24.796;2024-01-11T06:17:20;17.17;;;8.07;;
10667;SDS011;5382;42.136;24.796;2024-01-11T06:19:47;11.65;;;6.95;;
10667;SDS011;5382;42.136;24.796;2024-01-11T06:22:14;13.25;;;8.85;;
10667;SDS011;5382;42.136;24.796;2024-01-11T06:24:42;13.38;;;8.80;;
10667;SDS011;5382;42.136;24.796;2024-01-11T06:27:09;15.70;;;9.52;;
10667;SDS011;5382;42.136;24.796;2024-01-11T06:29:36;13.25;;;8.70;;
10667;SDS011;5382;42.136;24.796;2024-01-11T06:32:04;17.88;;;9.52;;
10667;SDS011;5382;42.136;24.796;2024-01-11T06:34:31;16.58;;;9.98;;
10667;SDS011;5382;42.136;24.796;2024-01-11T06:36:58;16.38;;;9.07;;
10667;SDS011;5382;42.136;24.796;2024-01-11T06:39:25;18.30;;;14.77;;
10667;SDS011;5382;42.136;24.796;2024-01-11T06:41:54;23.33;;;15.25;;
10667;SDS011;5382;42.136;24.796;2024-01-11T06:44:21;18.08;;;10.68;;
10667;SDS011;5382;42.136;24.796;2024-01-11T06:46:48;15.75;;;10.52;;
10667;SDS011;5382;42.136;24.796;2024-01-11T06:49:15;22.00;;;14.50;;
10667;SDS011;5382;42.136;24.796;2024-01-11T06:51:41;22.63;;;15.98;;
10667;SDS011;5382;42.136;24.796;2024-01-11T06:54:08;12.60;;;8.88;;
10667;SDS011;5382;42.136;24.796;2024-01-11T06:56:35;14.20;;;9.23;;
10667;SDS011;5382;42.136;24.796;2024-01-11T06:59:04;14.93;;;9.57;;
10667;SDS011;5382;42.136;24.796;2024-01-11T07:01:32;15.90;;;10.35;;
10667;SDS011;5382;42.136;24.796;2024-01-11T07:03:59;14.50;;;9.95;;
10667;SDS011;5382;42.136;24.796;2024-01-11T07:06:26;20.35;;;14.77;;
10667;SDS011;5382;42.136;24.796;2024-01-11T07:08:53;22.40;;;15.32;;
10667;SDS011;5382;42.136;24.796;2024-01-11T07:11:20;15.35;;;10.23;;
10667;SDS011;5382;42.136;24.796;2024-01-11T07:13:47;11.85;;;10.05;;
10667;SDS011;5382;42.136;24.796;2024-01-11T07:16:15;13.43;;;9.30;;
10667;SDS011;5382;42.136;24.796;2024-01-11T07:18:42;12.43;;;8.65;;
10667;SDS011;5382;42.136;24.796;2024-01-11T07:21:09;15.65;;;9.32;;
10667;SDS011;5382;42.136;24.796;2024-01-11T07:23:36;19.38;;;8.90;;
10667;SDS011;5382;42.136;24.796;2024-01-11T07:26:03;13.63;;;10.95;;
10667;SDS011;5382;42.136;24.796;2024-01-11T07:28:30;15.82;;;10.57;;
10667;SDS011;5382;42.136;24.796;2024-01-11T07:30:57;17.67;;;11.13;;
10667;SDS011;5382;42.136;24.796;2024-01-11T07:33:26;14.20;;;10.52;;
10667;SDS011;5382;42.136;24.796;2024-01-11T07:35:53;7.65;;;5.22;;
10667;SDS011;5382;42.136;24.796;2024-01-11T07:38:20;14.05;;;11.13;;
10667;SDS011;5382;42.136;24.796;2024-01-11T07:40:47;13.07;;;5.95;;
10667;SDS011;5382;42.136;24.796;2024-01-11T07:43:14;9.85;;;6.07;;
10667;SDS011;5382;42.136;24.796;2024-01-11T07:45:41;13.07;;;6.80;;
10667;SDS011;5382;42.136;24.796;2024-01-11T07:48:08;12.95;;;7.15;;
10667;SDS011;5382;42.136;24.796;2024-01-11T07:50:37;12.48;;;8.73;;
10667;SDS011;5382;42.136;24.796;2024-01-11T07:53:04;13.02;;;7.65;;
10667;SDS011;5382;42.136;24.796;2024-01-11T07:55:31;10.48;;;6.47;;
10667;SDS011;5382;42.136;24.796;2024-01-11T07:57:58;12.57;;;6.03;;
10667;SDS011;5382;42.136;24.796;2024-01-11T08:00:25;15.15;;;6.70;;
10667;SDS011;5382;42.136;24.796;2024-01-11T08:02:54;19.80;;;10.90;;
10667;SDS011;5382;42.136;24.796;2024-01-11T08:05:20;18.30;;;10.77;;
10667;SDS011;5382;42.136;24.796;2024-01-11T08:07:49;11.45;;;6.68;;
10667;SDS011;5382;42.136;24.796;2024-01-11T08:10:16;9.88;;;6.40;;
10667;SDS011;5382;42.136;24.796;2024-01-11T08:12:43;10.35;;;6.07;;
10667;SDS011;5382;42.136;24.796;2024-01-11T08:15:10;8.25;;;5.50;;
10667;SDS011;5382;42.136;24.796;2024-01-11T08:17:38;10.77;;;6.60;;
10667;SDS011;5382;42.136;24.796;2024-01-11T08:20:06;8.10;;;5.55;;
10667;SDS011;5382;42.136;24.796;2024-01-11T08:22:34;12.70;;;6.32;;
10667;SDS011;5382;42.136;24.796;2024-01-11T08:25:03;10.57;;;7.13;;
10667;SDS011;5382;42.136;24.796;2024-01-11T08:27:31;12.35;;;6.65;;
10667;SDS011;5382;42.136;24.796;2024-01-11T08:29:58;8.25;;;5.65;;
10667;SDS011;5382;42.136;24.796;2024-01-11T08:32:26;4.20;;;3.47;;
10667;SDS011;5382;42.136;24.796;2024-01-11T08:34:56;9.07;;;5.80;;
10667;SDS011;5382;42.136;24.796;2024-01-11T08:37:24;8.35;;;5.25;;
10667;SDS011;5382;42.136;24.796;2024-01-11T08:39:51;11.55;;;9.43;;
10667;SDS011;5382;42.136;24.796;2024-01-11T08:42:19;9.73;;;5.25;;
10667;SDS011;5382;42.136;24.796;2024-01-11T08:44:46;6.35;;;4.20;;
10667;SDS011;5382;42.136;24.796;2024-01-11T08:47:13;8.98;;;6.30;;
10667;SDS011;5382;42.136;24.796;2024-01-11T08:49:40;9.50;;;6.18;;
10667;SDS011;5382;42.136;24.796;2024-01-11T08:52:08;9.07;;;6.13;;
10667;SDS011;5382;42.136;24.796;2024-01-11T08:54:35;7.72;;;5.50;;
10667;SDS011;5382;42.136;24.796;2024-01-11T08:57:02;7.03;;;4.50;;
10667;SDS011;5382;42.136;24.796;2024-01-11T08:59:31;8.82;;;5.78;;
10667;SDS011;5382;42.136;24.796;2024-01-11T09:01:58;9.10;;;6.57;;
10667;SDS011;5382;42.136;24.796;2024-01-11T09:04:25;12.07;;;6.10;;
10667;SDS011;5382;42.136;24.796;2024-01-11T09:06:53;9.00;;;6.00;;
10667;SDS011;5382;42.136;24.796;2024-01-11T09:09:21;12.43;;;6.68;;
10667;SDS011;5382;42.136;24.796;2024-01-11T09:11:48;8.35;;;6.47;;
10667;SDS011;5382;42.136;24.796;2024-01-11T09:14:15;11.57;;;6.65;;
10667;SDS011;5382;42.136;24.796;2024-01-11T09:16:44;10.32;;;7.22;;
10667;SDS011;5382;42.136;24.796;2024-01-11T09:19:14;10.40;;;6.78;;
10667;SDS011;5382;42.136;24.796;2024-01-11T09:21:41;10.27;;;6.30;;
10667;SDS011;5382;42.136;24.796;2024-01-11T09:24:08;9.98;;;5.82;;
10667;SDS011;5382;42.136;24.796;2024-01-11T09:26:35;7.78;;;5.95;;
10667;SDS011;5382;42.136;24.796;2024-01-11T09:29:02;5.85;;;4.32;;
10667;SDS011;5382;42.136;24.796;2024-01-11T09:31:29;8.32;;;5.50;;
10667;SDS011;5382;42.136;24.796;2024-01-11T09:33:57;9.75;;;6.22;;
10667;SDS011;5382;42.136;24.796;2024-01-11T09:36:24;8.57;;;5.35;;
10667;SDS011;5382;42.136;24.796;2024-01-11T09:38:51;9.57;;;5.95;;
10667;SDS011;5382;42.136;24.796;2024-01-11T09:41:18;13.10;;;6.10;;
10667;SDS011;5382;42.136;24.796;2024-01-11T09:43:45;10.70;;;6.63;;
10667;SDS011;5382;42.136;24.796;2024-01-11T09:46:15;15.73;;;6.50;;
10667;SDS011;5382;42.136;24.796;2024-01-11T09:48:43;12.35;;;6.75;;
10667;SDS011;5382;42.136;24.796;2024-01-11T09:51:14;10.32;;;6.28;;
10667;SDS011;5382;42.136;24.796;2024-01-11T09:53:42;13.65;;;4.85;;
10667;SDS011;5382;42.136;24.796;2024-01-11T09:56:10;9.25;;;4.65;;
10667;SDS011;5382;42.136;24.796;2024-01-11T09:58:37;5.97;;;3.97;;
10667;SDS011;5382;42.136;24.796;2024-01-11T10:01:07;9.75;;;5.65;;
10667;SDS011;5382;42.136;24.796;2024-01-11T10:03:38;9.45;;;7.25;;
10667;SDS011;5382;42.136;24.796;2024-01-11T10:06:06;8.10;;;6.28;;
10667;SDS011;5382;42.136;24.796;2024-01-11T10:08:37;8.50;;;5.30;;
10667;SDS011;5382;42.136;24.796;2024-01-11T10:11:04;8.77;;;5.93;;
10667;SDS011;5382;42.136;24.796;2024-01-11T10:13:31;11.13;;;5.18;;
10667;SDS011;5382;42.136;24.796;2024-01-11T10:16:07;10.57;;;6.20;;
10667;SDS011;5382;42.136;24.796;2024-01-11T10:18:36;8.63;;;5.43;;
10667;SDS011;5382;42.136;24.796;2024-01-11T10:21:03;10.15;;;5.35;;
10667;SDS011;5382;42.136;24.796;2024-01-11T10:23:33;7.13;;;5.18;;
10667;SDS011;5382;42.136;24.796;2024-01-11T10:26:02;8.52;;;5.57;;
10667;SDS011;5382;42.136;24.796;2024-01-11T10:28:29;9.43;;;5.57;;
10667;SDS011;5382;42.136;24.796;2024-01-11T10:30:57;10.07;;;5.70;;
10667;SDS011;5382;42.136;24.796;2024-01-11T10:33:24;13.38;;;6.05;;
10667;SDS011;5382;42.136;24.796;2024-01-11T10:35:51;7.85;;;4.60;;
10667;SDS011;5382;42.136;24.796;2024-01-11T10:38:18;12.15;;;6.20;;
10667;SDS011;5382;42.136;24.796;2024-01-11T10:40:49;9.45;;;6.85;;
10667;SDS011;5382;42.136;24.796;2024-01-11T10:43:19;9.07;;;6.53;;
10667;SDS011;5382;42.136;24.796;2024-01-11T10:45:48;9.80;;;8.65;;
10667;SDS011;5382;42.136;24.796;2024-01-11T10:48:19;10.45;;;7.82;;
10667;SDS011;5382;42.136;24.796;2024-01-11T10:50:49;8.00;;;5.80;;
10667;SDS011;5382;42.136;24.796;2024-01-11T10:53:25;8.00;;;4.97;;
10667;SDS011;5382;42.136;24.796;2024-01-11T10:56:03;8.45;;;6.25;;
10667;SDS011;5382;42.136;24.796;2024-01-11T10:58:34;12.68;;;6.07;;
10667;SDS011;5382;42.136;24.796;2024-01-11T11:01:02;8.68;;;6.47;;
10667;SDS011;5382;42.136;24.796;2024-01-11T11:03:30;11.10;;;6.13;;
10667;SDS011;5382;42.136;24.796;2024-01-11T11:06:00;8.35;;;5.47;;
10667;SDS011;5382;42.136;24.796;2024-01-11T11:08:27;14.50;;;6.35;;
10667;SDS011;5382;42.136;24.796;2024-01-11T11:10:54;9.95;;;7.47;;
10667;SDS011;5382;42.136;24.796;2024-01-11T11:13:23;8.93;;;6.60;;
10667;SDS011;5382;42.136;24.796;2024-01-11T11:15:52;10.48;;;7.93;;
10667;SDS011;5382;42.136;24.796;2024-01-11T11:18:20;9.80;;;7.88;;
10667;SDS011;5382;42.136;24.796;2024-01-11T11:20:47;7.93;;;7.13;;
10667;SDS011;5382;42.136;24.796;2024-01-11T11:23:16;12.52;;;7.65;;
10667;SDS011;5382;42.136;24.796;2024-01-11T11:25:44;9.05;;;7.90;;
10667;SDS011;5382;42.136;24.796;2024-01-11T11:28:13;13.52;;;7.72;;
10667;SDS011;5382;42.136;24.796;2024-01-11T11:30:43;10.48;;;7.53;;
10667;SDS011;5382;42.136;24.796;2024-01-11T11:33:17;11.30;;;7.97;;
10667;SDS011;5382;42.136;24.796;2024-01-11T11:35:45;9.65;;;7.93;;
10667;SDS011;5382;42.136;24.796;2024-01-11T11:38:20;10.23;;;7.95;;
10667;SDS011;5382;42.136;24.796;2024-01-11T11:40:48;11.02;;;8.30;;
10667;SDS011;5382;42.136;24.796;2024-01-11T11:43:17;11.82;;;8.93;;
10667;SDS011;5382;42.136;24.796;2024-01-11T11:45:45;12.80;;;9.20;;
10667;SDS011;5382;42.136;24.796;2024-01-11T11:51:16;9.60;;;8.52;;
10667;SDS011;5382;42.136;24.796;2024-01-11T11:53:45;13.02;;;9.50;;
10667;SDS011;5382;42.136;24.796;2024-01-11T11:56:13;12.55;;;9.18;;
10667;SDS011;5382;42.136;24.796;2024-01-11T11:58:42;11.70;;;9.20;;
10667;SDS011;5382;42.136;24.796;2024-01-11T12:01:10;13.13;;;9.25;;
10667;SDS011;5382;42.136;24.796;2024-01-11T12:03:38;12.32;;;9.05;;
10667;SDS011;5382;42.136;24.796;2024-01-11T12:06:09;12.85;;;8.75;;
10667;SDS011;5382;42.136;24.796;2024-01-11T12:08:37;10.57;;;8.60;;
10667;SDS011;5382;42.136;24.796;2024-01-11T12:11:05;10.30;;;8.63;;
10667;SDS011;5382;42.136;24.796;2024-01-11T12:13:33;12.25;;;9.43;;
10667;SDS011;5382;42.136;24.796;2024-01-11T12:16:01;11.55;;;8.40;;
10667;SDS011;5382;42.136;24.796;2024-01-11T12:18:28;13.52;;;8.88;;
10667;SDS011;5382;42.136;24.796;2024-01-11T12:20:55;12.80;;;8.43;;
10667;SDS011;5382;42.136;24.796;2024-01-11T12:23:24;9.95;;;8.70;;
10667;SDS011;5382;42.136;24.796;2024-01-11T12:25:51;10.90;;;8.10;;
10667;SDS011;5382;42.136;24.796;2024-01-11T12:28:18;10.60;;;9.10;;
10667;SDS011;5382;42.136;24.796;2024-01-11T12:30:45;10.57;;;9.10;;
10667;SDS011;5382;42.136;24.796;2024-01-11T12:33:12;10.13;;;8.52;;
10667;SDS011;5382;42.136;24.796;2024-01-11T12:35:39;10.43;;;8.40;;
10667;SDS011;5382;42.136;24.796;2024-01-11T12:38:06;15.60;;;9.25;;
10667;SDS011;5382;42.136;24.796;2024-01-11T12:40:36;10.25;;;9.18;;
10667;SDS011;5382;42.136;24.796;2024-01-11T12:43:03;14.05;;;9.70;;
10667;SDS011;5382;42.136;24.796;2024-01-11T12:45:31;10.77;;;9.45;;
10667;SDS011;5382;42.136;24.796;2024-01-11T12:47:59;10.40;;;8.57;;
10667;SDS011;5382;42.136;24.796;2024-01-11T12:50:26;11.10;;;9.20;;
10667;SDS011;5382;42.136;24.796;2024-01-11T12:53:09;12.20;;;8.82;;
10667;SDS011;5382;42.136;24.796;2024-01-11T12:55:44;10.77;;;8.90;;
10667;SDS011;5382;42.136;24.796;2024-01-11T12:58:12;11.55;;;8.95;;
10667;SDS011;5382;42.136;24.796;2024-01-11T13:00:39;9.60;;;8.60;;
10667;SDS011;5382;42.136;24.796;2024-01-11T13:03:06;10.32;;;8.40;;
10667;SDS011;5382;42.136;24.796;2024-01-11T13:05:35;13.25;;;9.00;;
10667;SDS011;5382;42.136;24.796;2024-01-11T13:08:03;9.95;;;8.93;;
10667;SDS011;5382;42.136;24.796;2024-01-11T13:10:34;13.27;;;9.57;;
10667;SDS011;5382;42.136;24.796;2024-01-11T13:13:04;10.85;;;8.75;;
10667;SDS011;5382;42.136;24.796;2024-01-11T13:15:33;13.25;;;10.30;;
10667;SDS011;5382;42.136;24.796;2024-01-11T13:18:01;11.13;;;8.63;;
10667;SDS011;5382;42.136;24.796;2024-01-11T13:20:29;12.57;;;9.55;;
10667;SDS011;5382;42.136;24.796;2024-01-11T13:23:11;10.60;;;8.25;;
10667;SDS011;5382;42.136;24.796;2024-01-11T13:25:39;13.80;;;8.73;;
10667;SDS011;5382;42.136;24.796;2024-01-11T13:28:08;11.38;;;8.68;;
10667;SDS011;5382;42.136;24.796;2024-01-11T13:30:37;12.98;;;8.77;;
10667;SDS011;5382;42.136;24.796;2024-01-11T13:33:04;12.82;;;8.98;;
10667;SDS011;5382;42.136;24.796;2024-01-11T13:35:31;10.90;;;8.98;;
10667;SDS011;5382;42.136;24.796;2024-01-11T13:37:58;10.57;;;8.45;;
10667;SDS011;5382;42.136;24.796;2024-01-11T13:40:26;11.75;;;9.32;;
10667;SDS011;5382;42.136;24.796;2024-01-11T13:42:53;12.82;;;9.90;;
10667;SDS011;5382;42.136;24.796;2024-01-11T13:45:22;10.98;;;8.95;;
10667;SDS011;5382;42.136;24.796;2024-01-11T13:47:49;9.93;;;8.90;;
10667;SDS011;5382;42.136;24.796;2024-01-11T13:50:16;11.25;;;8.88;;
10667;SDS011;5382;42.136;24.796;2024-01-11T13:52:43;9.30;;;8.18;;
10667;SDS011;5382;42.136;24.796;2024-01-11T13:55:11;14.32;;;8.75;;
10667;SDS011;5382;42.136;24.796;2024-01-11T13:57:38;9.30;;;8.38;;
10667;SDS011;5382;42.136;24.796;2024-01-11T14:00:07;10.35;;;8.52;;
10667;SDS011;5382;42.136;24.796;2024-01-11T14:02:37;9.93;;;8.77;;
10667;SDS011;5382;42.136;24.796;2024-01-11T14:05:06;10.27;;;8.25;;
10667;SDS011;5382;42.136;24.796;2024-01-11T14:07:36;9.95;;;8.35;;
10667;SDS011;5382;42.136;24.796;2024-01-11T14:10:04;9.77;;;8.77;;
10667;SDS011;5382;42.136;24.796;2024-01-11T14:12:33;12.15;;;8.95;;
10667;SDS011;5382;42.136;24.796;2024-01-11T14:15:00;14.65;;;8.70;;
10667;SDS011;5382;42.136;24.796;2024-01-11T14:17:28;12.10;;;9.25;;
10667;SDS011;5382;42.136;24.796;2024-01-11T14:19:56;11.38;;;8.40;;
10667;SDS011;5382;42.136;24.796;2024-01-11T14:22:23;10.40;;;8.23;;
10667;SDS011;5382;42.136;24.796;2024-01-11T14:24:50;10.45;;;8.95;;
10667;SDS011;5382;42.136;24.796;2024-01-11T14:27:19;12.05;;;8.43;;
10667;SDS011;5382;42.136;24.796;2024-01-11T14:29:46;11.43;;;8.98;;
10667;SDS011;5382;42.136;24.796;2024-01-11T14:32:13;10.90;;;9.40;;
10667;SDS011;5382;42.136;24.796;2024-01-11T14:34:41;12.10;;;9.77;;
10667;SDS011;5382;42.136;24.796;2024-01-11T14:37:10;12.35;;;9.15;;